createdAt,value
2023-01-06T00:00:24.204Z,0
2023-01-06T00:01:25.227Z,0
2023-01-06T00:02:46.213Z,0
2023-01-06T00:03:27.266Z,0
2023-01-06T00:04:23.300Z,0
2023-01-06T00:05:31.777Z,0
2023-01-06T00:06:27.902Z,0
2023-01-06T00:07:26.712Z,0
2023-01-06T00:08:35.769Z,0
2023-01-06T00:09:30.532Z,0
2023-01-06T00:10:25.294Z,0
2023-01-06T00:11:23.400Z,0
2023-01-06T00:12:25.506Z,0
2023-01-06T00:13:28.560Z,0
2023-01-06T00:14:24.473Z,0
2023-01-06T00:15:29.253Z,0
2023-01-06T00:16:20.913Z,0
2023-01-06T00:17:22.551Z,0
2023-01-06T00:18:21.375Z,0
2023-01-06T00:19:23.713Z,0
2023-01-06T00:20:28.491Z,0
2023-01-06T00:21:22.769Z,0
2023-01-06T00:22:21.281Z,0
2023-01-06T00:23:28.374Z,0
2023-01-06T00:24:24.518Z,0
2023-01-06T00:25:20.677Z,0
2023-01-06T00:26:28.733Z,0
2023-01-06T00:27:26.469Z,0
2023-01-06T00:28:22.966Z,0
2023-01-06T00:29:27.716Z,0
2023-01-06T00:30:22.328Z,0
2023-01-06T00:31:25.577Z,0
2023-01-06T00:32:20.613Z,0
2023-01-06T00:33:30.435Z,0
2023-01-06T00:34:24.590Z,0
2023-01-06T00:35:23.219Z,0
2023-01-06T00:36:30.233Z,0
2023-01-06T00:37:26.354Z,0
2023-01-06T00:38:25.430Z,0
2023-01-06T00:39:20.589Z,0
2023-01-06T00:40:34.563Z,0
2023-01-06T00:41:20.006Z,0
2023-01-06T00:42:24.473Z,0
2023-01-06T00:43:36.882Z,0
2023-01-06T00:44:28.807Z,0
2023-01-06T00:45:21.042Z,0
2023-01-06T00:46:24.009Z,0
2023-01-06T00:47:30.722Z,0
2023-01-06T00:48:24.123Z,0
2023-01-06T00:49:22.450Z,0
2023-01-06T00:50:32.674Z,0
2023-01-06T00:51:26.885Z,0
2023-01-06T00:52:34.413Z,0
2023-01-06T00:53:20.415Z,0
2023-01-06T00:54:19.737Z,0
2023-01-06T00:55:27.464Z,0
2023-01-06T00:56:22.253Z,0
2023-01-06T00:57:32.612Z,0
2023-01-06T00:58:29.978Z,0
2023-01-06T00:59:20.495Z,0
2023-01-06T01:00:21.986Z,0
2023-01-06T01:01:23.885Z,0
2023-01-06T01:02:22.463Z,0
2023-01-06T01:03:22.340Z,0
2023-01-06T01:04:32.582Z,0
2023-01-06T01:05:43.942Z,0
2023-01-06T01:06:27.503Z,0
2023-01-06T01:07:20.933Z,0
2023-01-06T01:08:27.407Z,0
2023-01-06T01:09:20.364Z,0
2023-01-06T01:10:22.789Z,0
2023-01-06T01:11:32.536Z,0
2023-01-06T01:12:41.621Z,0
2023-01-06T01:13:27.336Z,0
2023-01-06T01:14:23.253Z,0
2023-01-06T01:15:23.232Z,0
2023-01-06T01:16:28.522Z,0
2023-01-06T01:17:22.819Z,0
2023-01-06T01:18:32.923Z,0
2023-01-06T01:19:30.507Z,0
2023-01-06T01:20:24.702Z,0
2023-01-06T01:21:21.754Z,0
2023-01-06T01:22:32.453Z,0
2023-01-06T01:23:20.665Z,0
2023-01-06T01:24:24.677Z,0
2023-01-06T01:25:30.369Z,0
2023-01-06T01:26:28.505Z,0
2023-01-06T01:27:26.596Z,0
2023-01-06T01:28:20.809Z,0
2023-01-06T01:29:32.041Z,0
2023-01-06T01:30:21.343Z,0
2023-01-06T01:31:29.329Z,0
2023-01-06T01:32:32.373Z,0
2023-01-06T01:33:30.310Z,0
2023-01-06T01:34:24.647Z,0
2023-01-06T01:35:22.873Z,0
2023-01-06T01:36:28.513Z,0
2023-01-06T01:37:31.351Z,0
2023-01-06T01:38:22.612Z,0
2023-01-06T01:39:24.251Z,0
2023-01-06T01:40:28.454Z,0
2023-01-06T01:41:26.043Z,0
2023-01-06T01:42:20.622Z,0
2023-01-06T01:43:30.323Z,0
2023-01-06T01:44:26.445Z,0
2023-01-06T01:45:23.948Z,0
2023-01-06T01:46:21.453Z,0
2023-01-06T01:47:23.903Z,0
2023-01-06T01:48:24.474Z,0
2023-01-06T01:49:21.829Z,0
2023-01-06T01:50:32.736Z,0
2023-01-06T01:51:27.044Z,0
2023-01-06T01:52:22.504Z,0
2023-01-06T01:53:34.634Z,0
2023-01-06T01:54:23.609Z,0
2023-01-06T01:55:24.338Z,0
2023-01-06T01:56:20.419Z,0
2023-01-06T01:57:30.809Z,0
2023-01-06T01:58:21.523Z,0
2023-01-06T01:59:38.578Z,0
2023-01-06T02:00:28.149Z,0
2023-01-06T02:16:24.522Z,0
2023-01-06T02:17:21.632Z,0
2023-01-06T02:18:28.473Z,0
2023-01-06T02:19:26.164Z,0
2023-01-06T02:20:22.517Z,0
2023-01-06T02:21:28.890Z,0
2023-01-06T02:22:23.291Z,0
2023-01-06T02:23:27.697Z,0
2023-01-06T02:24:20.415Z,0
2023-01-06T02:25:30.858Z,0
2023-01-06T02:26:26.413Z,0
2023-01-06T02:27:22.491Z,0
2023-01-06T02:28:32.794Z,0
2023-01-06T02:29:27.665Z,0
2023-01-06T02:30:25.034Z,0
2023-01-06T02:31:20.626Z,0
2023-01-06T02:32:25.545Z,0
2023-01-06T02:33:21.083Z,0
2023-01-06T02:34:22.372Z,0
2023-01-06T02:35:34.434Z,0
2023-01-06T02:36:28.821Z,0
2023-01-06T02:37:24.882Z,0
2023-01-06T02:38:20.475Z,0
2023-01-06T02:39:21.220Z,0
2023-01-06T02:40:19.467Z,0
2023-01-06T02:41:22.895Z,0
2023-01-06T02:42:34.304Z,0
2023-01-06T02:43:21.634Z,0
2023-01-06T02:44:25.465Z,0
2023-01-06T02:45:20.345Z,0
2023-01-06T02:46:27.000Z,0
2023-01-06T02:47:23.696Z,0
2023-01-06T02:48:22.866Z,0
2023-01-06T02:49:26.742Z,0
2023-01-06T02:50:28.685Z,0
2023-01-06T02:51:25.299Z,0
2023-01-06T02:52:42.871Z,0
2023-01-06T02:53:30.613Z,0
2023-01-06T02:54:23.721Z,0
2023-01-06T02:55:21.282Z,0
2023-01-06T02:56:32.502Z,0
2023-01-06T02:57:30.246Z,0
2023-01-06T02:58:24.746Z,0
2023-01-06T02:59:35.691Z,0
2023-01-06T03:00:23.216Z,0
2023-01-06T03:01:27.356Z,0
2023-01-06T03:02:25.704Z,0
2023-01-06T03:03:32.514Z,0
2023-01-06T03:04:30.631Z,0
2023-01-06T03:05:24.974Z,0
2023-01-06T03:06:29.379Z,0
2023-01-06T03:07:30.483Z,0
2023-01-06T03:08:32.462Z,0
2023-01-06T03:09:24.271Z,0
2023-01-06T03:10:21.413Z,0
2023-01-06T03:11:20.196Z,0
2023-01-06T03:12:26.301Z,0
2023-01-06T03:13:20.685Z,0
2023-01-06T03:14:30.392Z,0
2023-01-06T03:15:29.480Z,0
2023-01-06T03:16:25.785Z,0
2023-01-06T03:17:25.655Z,0
2023-01-06T03:18:28.422Z,0
2023-01-06T03:19:33.992Z,0
2023-01-06T03:20:20.668Z,0
2023-01-06T03:21:32.601Z,0
2023-01-06T03:22:26.386Z,0
2023-01-06T03:23:23.756Z,0
2023-01-06T03:24:25.995Z,0
2023-01-06T03:25:22.642Z,0
2023-01-06T03:26:25.875Z,0
2023-01-06T03:27:23.884Z,0
2023-01-06T03:28:21.967Z,0
2023-01-06T03:29:36.751Z,0
2023-01-06T03:30:33.616Z,0
2023-01-06T03:31:30.203Z,0
2023-01-06T03:32:23.254Z,0
2023-01-06T03:33:25.560Z,0
2023-01-06T03:34:21.238Z,0
2023-01-06T03:35:42.382Z,0
2023-01-06T03:36:40.498Z,0
2023-01-06T03:37:37.195Z,0
2023-01-06T03:38:21.647Z,0
2023-01-06T03:39:30.365Z,0
2023-01-06T03:40:24.946Z,0
2023-01-06T03:41:21.841Z,0
2023-01-06T03:42:36.566Z,0
2023-01-06T03:43:42.104Z,0
2023-01-06T03:44:38.131Z,0
2023-01-06T03:45:26.181Z,0
2023-01-06T03:46:29.167Z,0
2023-01-06T03:47:27.540Z,0
2023-01-06T03:48:22.016Z,0
2023-01-06T03:49:19.785Z,0
2023-01-06T03:50:26.982Z,0
2023-01-06T03:51:23.592Z,0
2023-01-06T03:52:28.870Z,0
2023-01-06T03:53:39.799Z,0
2023-01-06T03:54:32.682Z,0
2023-01-06T03:55:24.615Z,0
2023-01-06T03:56:22.882Z,0
2023-01-06T03:57:34.000Z,0
2023-01-06T03:58:45.807Z,0
2023-01-06T03:59:30.898Z,0
2023-01-06T04:00:43.791Z,0
2023-01-06T04:01:25.195Z,0
2023-01-06T04:02:30.559Z,0
2023-01-06T04:03:23.457Z,0
2023-01-06T04:04:56.383Z,0
2023-01-06T04:05:48.474Z,0
2023-01-06T04:06:34.307Z,0
2023-01-06T04:07:20.796Z,0
2023-01-06T04:08:26.372Z,0
2023-01-06T04:09:21.032Z,0
2023-01-06T04:10:25.592Z,0
2023-01-06T04:11:27.203Z,0
2023-01-06T04:12:52.693Z,0
2023-01-06T04:13:24.114Z,0
2023-01-06T04:14:23.795Z,0
2023-01-06T04:15:24.687Z,0
2023-01-06T04:16:38.026Z,0
2023-01-06T04:17:32.029Z,0
2023-01-06T04:18:22.597Z,0
2023-01-06T04:19:22.686Z,0
2023-01-06T04:20:42.068Z,0
2023-01-06T04:21:55.948Z,0
2023-01-06T04:22:24.569Z,0
2023-01-06T04:23:22.146Z,0
2023-01-06T04:24:19.905Z,0
2023-01-06T04:25:22.809Z,0
2023-01-06T04:26:22.759Z,0
2023-01-06T04:27:34.798Z,0
2023-01-06T04:28:30.077Z,0
2023-01-06T04:29:24.542Z,0
2023-01-06T04:30:26.784Z,0
2023-01-06T04:31:30.903Z,0
2023-01-06T04:32:26.716Z,0
2023-01-06T04:33:23.059Z,0
2023-01-06T04:34:48.763Z,0
2023-01-06T04:35:29.539Z,0
2023-01-06T04:36:19.810Z,0
2023-01-06T04:37:36.421Z,0
2023-01-06T04:38:32.343Z,0
2023-01-06T04:39:28.017Z,0
2023-01-06T04:40:22.529Z,0
2023-01-06T04:41:21.815Z,0
2023-01-06T04:42:30.321Z,0
2023-01-06T04:43:22.888Z,0
2023-01-06T04:44:22.299Z,0
2023-01-06T04:45:47.304Z,0
2023-01-06T04:46:32.159Z,0
2023-01-06T04:47:22.963Z,0
2023-01-06T04:48:26.180Z,0
2023-01-06T04:49:29.022Z,0
2023-01-06T04:50:25.667Z,0
2023-01-06T04:51:20.540Z,0
2023-01-06T04:52:51.487Z,0
2023-01-06T04:53:28.071Z,0
2023-01-06T04:54:22.536Z,0
2023-01-06T04:55:56.629Z,0
2023-01-06T04:56:30.008Z,0
2023-01-06T04:57:24.982Z,0
2023-01-06T04:58:24.953Z,0
2023-01-06T04:59:31.143Z,0
2023-01-06T05:00:26.745Z,0
2023-01-06T05:01:25.947Z,0
2023-01-06T05:02:32.586Z,0
2023-01-06T05:03:27.287Z,0
2023-01-06T05:04:24.726Z,0
2023-01-06T05:05:21.025Z,0
2023-01-06T05:06:30.714Z,0
2023-01-06T05:07:39.840Z,0
2023-01-06T05:08:24.538Z,0
2023-01-06T05:09:20.972Z,0
2023-01-06T05:10:29.628Z,0
2023-01-06T05:11:24.527Z,0
2023-01-06T05:12:21.945Z,0
2023-01-06T05:13:32.552Z,0
2023-01-06T05:14:26.689Z,0
2023-01-06T05:15:28.174Z,0
2023-01-06T05:16:42.114Z,0
2023-01-06T05:17:28.584Z,0
2023-01-06T05:18:29.197Z,0
2023-01-06T05:19:20.836Z,0
2023-01-06T05:20:30.622Z,0
2023-01-06T05:21:28.922Z,0
2023-01-06T05:22:34.720Z,0
2023-01-06T05:23:19.834Z,0
2023-01-06T05:24:30.037Z,0
2023-01-06T05:25:24.793Z,0
2023-01-06T05:26:24.439Z,0
2023-01-06T05:27:33.126Z,0
2023-01-06T05:28:41.869Z,0
2023-01-06T05:29:37.526Z,0
2023-01-06T05:30:24.924Z,0
2023-01-06T05:31:43.925Z,0
2023-01-06T05:32:29.666Z,0
2023-01-06T05:33:31.090Z,0
2023-01-06T05:34:23.757Z,0
2023-01-06T05:35:27.691Z,0
2023-01-06T05:36:40.628Z,0
2023-01-06T05:37:22.773Z,0
2023-01-06T05:38:29.068Z,0
2023-01-06T05:39:24.594Z,0
2023-01-06T05:40:36.481Z,0
2023-01-06T05:41:26.330Z,0
2023-01-06T05:42:27.051Z,0
2023-01-06T05:43:24.839Z,0
2023-01-06T05:44:29.144Z,0
2023-01-06T05:45:52.409Z,0
2023-01-06T05:46:45.262Z,0
2023-01-06T05:47:39.244Z,0
2023-01-06T05:48:25.155Z,0
2023-01-06T05:49:23.385Z,0
2023-01-06T05:50:23.223Z,0
2023-01-06T05:51:32.677Z,0
2023-01-06T05:52:44.046Z,0
2023-01-06T05:53:26.583Z,0
2023-01-06T05:54:22.967Z,0
2023-01-06T05:55:27.212Z,0
2023-01-06T05:56:27.393Z,0
2023-01-06T05:57:22.917Z,0
2023-01-06T05:58:35.938Z,0
2023-01-06T05:59:22.146Z,0
2023-01-06T06:00:27.825Z,0
2023-01-06T06:01:21.244Z,0
2023-01-06T06:02:30.732Z,0
2023-01-06T06:03:32.696Z,0
2023-01-06T06:04:25.219Z,0
2023-01-06T06:05:35.390Z,0
2023-01-06T06:06:25.057Z,0
2023-01-06T06:07:26.702Z,0
2023-01-06T06:08:21.566Z,0
2023-01-06T06:09:32.854Z,0
2023-01-06T06:10:20.557Z,0
2023-01-06T06:11:30.405Z,0
2023-01-06T06:12:24.791Z,0
2023-01-06T06:13:28.291Z,0
2023-01-06T06:14:26.844Z,0
2023-01-06T06:15:55.213Z,0
2023-01-06T06:16:37.273Z,0
2023-01-06T06:17:24.866Z,0
2023-01-06T06:18:33.354Z,0
2023-01-06T06:19:25.793Z,0
2023-01-06T06:20:32.103Z,0
2023-01-06T06:22:09.735Z,0
2023-01-06T06:22:35.652Z,0
2023-01-06T06:23:35.502Z,0
2023-01-06T06:24:27.973Z,0
2023-01-06T06:25:22.854Z,0
2023-01-06T06:26:29.793Z,0
2023-01-06T06:27:20.243Z,0
2023-01-06T06:28:21.033Z,0
2023-01-06T06:29:34.893Z,0
2023-01-06T06:30:33.271Z,0
2023-01-06T06:31:29.365Z,0
2023-01-06T06:32:23.451Z,0
2023-01-06T06:33:34.514Z,0
2023-01-06T06:34:24.354Z,0
2023-01-06T06:35:21.026Z,0
2023-01-06T06:36:20.760Z,0
2023-01-06T06:37:46.535Z,0
2023-01-06T06:38:28.413Z,0
2023-01-06T06:39:24.966Z,0
2023-01-06T06:40:38.058Z,0
2023-01-06T06:41:29.022Z,0
2023-01-06T06:42:23.385Z,0
2023-01-06T06:43:21.312Z,0
2023-01-06T06:44:32.399Z,0
2023-01-06T06:45:27.716Z,0
2023-01-06T06:46:22.588Z,0
2023-01-06T06:47:39.678Z,0
2023-01-06T06:48:30.252Z,0
2023-01-06T06:49:25.399Z,0
2023-01-06T06:50:24.208Z,0
2023-01-06T06:51:32.416Z,0
2023-01-06T06:52:28.717Z,-0
2023-01-06T06:53:25.301Z,0
2023-01-06T06:54:34.160Z,0
2023-01-06T06:55:29.078Z,0
2023-01-06T06:56:26.832Z,0
2023-01-06T06:57:22.895Z,-0
2023-01-06T06:58:31.515Z,0
2023-01-06T06:59:28.793Z,0
2023-01-06T07:00:23.089Z,0
2023-01-06T07:01:35.342Z,0
2023-01-06T07:02:29.378Z,0
2023-01-06T07:03:26.629Z,0
2023-01-06T07:04:23.260Z,0
2023-01-06T07:05:24.742Z,0
2023-01-06T07:06:28.741Z,0
2023-01-06T07:07:24.533Z,0
2023-01-06T07:08:36.501Z,0
2023-01-06T07:09:28.923Z,0
2023-01-06T07:10:26.446Z,0
2023-01-06T07:11:20.982Z,0
2023-01-06T07:12:23.417Z,0
2023-01-06T07:13:21.793Z,0
2023-01-06T07:14:25.129Z,0
2023-01-06T07:15:21.156Z,0
2023-01-06T07:16:30.209Z,0
2023-01-06T07:17:24.790Z,0
2023-01-06T07:18:22.446Z,0
2023-01-06T07:19:27.551Z,0
2023-01-06T07:20:20.469Z,0
2023-01-06T07:21:22.915Z,0
2023-01-06T07:22:26.077Z,0
2023-01-06T07:23:29.145Z,0
2023-01-06T07:24:26.088Z,0
2023-01-06T07:25:20.879Z,0
2023-01-06T07:26:31.672Z,0
2023-01-06T07:27:28.017Z,0
2023-01-06T07:28:22.899Z,0
2023-01-06T07:29:26.814Z,0
2023-01-06T07:30:29.876Z,0
2023-01-06T07:31:25.551Z,0
2023-01-06T07:32:22.747Z,0
2023-01-06T07:33:22.167Z,0
2023-01-06T07:34:28.288Z,0
2023-01-06T07:35:24.825Z,0
2023-01-06T07:36:19.790Z,0
2023-01-06T07:37:29.448Z,0
2023-01-06T07:38:25.000Z,0
2023-01-06T07:39:22.591Z,0
2023-01-06T07:40:26.483Z,0
2023-01-06T07:41:27.245Z,0
2023-01-06T07:42:26.129Z,0
2023-01-06T07:43:25.308Z,0
2023-01-06T07:44:20.185Z,0
2023-01-06T07:45:26.259Z,0
2023-01-06T07:46:21.160Z,0
2023-01-06T07:47:31.600Z,0
2023-01-06T07:48:28.298Z,0
2023-01-06T07:49:22.726Z,0
2023-01-06T07:50:26.286Z,0
2023-01-06T07:51:23.371Z,0
2023-01-06T07:52:25.219Z,0
2023-01-06T07:53:20.688Z,1
2023-01-06T07:54:50.617Z,1
2023-01-06T07:55:27.785Z,1
2023-01-06T07:56:23.087Z,1
2023-01-06T07:57:26.645Z,1
2023-01-06T07:58:29.022Z,1
2023-01-06T07:59:25.192Z,1
2023-01-06T08:00:20.727Z,1
2023-01-06T08:01:32.834Z,1
2023-01-06T08:02:21.207Z,1
2023-01-06T08:03:21.440Z,1
2023-01-06T08:04:34.582Z,1
2023-01-06T08:05:23.089Z,1
2023-01-06T08:06:25.065Z,1
2023-01-06T08:07:21.848Z,1
2023-01-06T08:08:30.851Z,1
2023-01-06T08:09:28.533Z,1
2023-01-06T08:10:23.064Z,1
2023-01-06T08:11:34.266Z,1
2023-01-06T08:12:30.448Z,1
2023-01-06T08:13:20.680Z,1
2023-01-06T08:14:21.158Z,1
2023-01-06T08:15:32.308Z,1
2023-01-06T08:16:44.224Z,1
2023-01-06T08:17:22.974Z,1
2023-01-06T08:18:32.910Z,1
2023-01-06T08:19:33.146Z,1
2023-01-06T08:20:24.886Z,1
2023-01-06T08:21:21.038Z,1
2023-01-06T08:22:32.014Z,1
2023-01-06T08:23:26.896Z,1
2023-01-06T08:24:22.939Z,1
2023-01-06T08:25:34.043Z,1
2023-01-06T08:26:29.268Z,1
2023-01-06T08:27:30.047Z,1
2023-01-06T08:28:21.484Z,1
2023-01-06T08:29:23.461Z,1
2023-01-06T08:30:26.828Z,1
2023-01-06T08:31:23.031Z,1
2023-01-06T08:32:34.786Z,1
2023-01-06T08:33:28.669Z,1
2023-01-06T08:34:26.679Z,1
2023-01-06T08:35:20.873Z,1
2023-01-06T08:36:26.728Z,1
2023-01-06T08:37:26.787Z,1
2023-01-06T08:38:38.767Z,1
2023-01-06T08:39:33.070Z,1
2023-01-06T08:40:31.292Z,1
2023-01-06T08:41:25.385Z,1
2023-01-06T08:42:22.531Z,1
2023-01-06T08:43:22.190Z,1
2023-01-06T08:44:23.470Z,1
2023-01-06T08:45:22.798Z,1
2023-01-06T08:46:34.406Z,1
2023-01-06T08:47:29.108Z,1
2023-01-06T08:48:22.319Z,1
2023-01-06T08:49:36.352Z,1
2023-01-06T08:50:27.550Z,1
2023-01-06T08:51:28.552Z,1
2023-01-06T08:52:22.911Z,1
2023-01-06T08:53:33.048Z,1
2023-01-06T08:54:27.479Z,1
2023-01-06T08:55:25.100Z,1
2023-01-06T08:56:20.861Z,1
2023-01-06T08:57:32.210Z,1
2023-01-06T08:58:23.370Z,1
2023-01-06T08:59:24.782Z,1
2023-01-06T09:00:34.052Z,1
2023-01-06T09:01:46.624Z,1
2023-01-06T09:02:27.544Z,1
2023-01-06T09:03:20.676Z,1
2023-01-06T09:04:30.999Z,1
2023-01-06T09:05:22.484Z,1
2023-01-06T09:06:23.188Z,1
2023-01-06T09:07:22.335Z,1
2023-01-06T09:08:30.889Z,1
2023-01-06T09:09:25.024Z,1
2023-01-06T09:10:21.837Z,1
2023-01-06T09:11:27.245Z,1
2023-01-06T09:12:26.994Z,1
2023-01-06T09:13:24.998Z,1
2023-01-06T09:14:27.659Z,1
2023-01-06T09:15:19.597Z,1
2023-01-06T09:16:20.661Z,1
2023-01-06T09:17:21.174Z,1
2023-01-06T09:18:22.191Z,2
2023-01-06T09:19:29.113Z,2
2023-01-06T09:20:23.166Z,2
2023-01-06T09:21:21.319Z,2
2023-01-06T09:22:26.511Z,2
2023-01-06T09:23:24.972Z,2
2023-01-06T09:24:20.982Z,2
2023-01-06T09:25:23.089Z,2
2023-01-06T09:26:26.954Z,2
2023-01-06T09:27:23.537Z,2
2023-01-06T09:28:27.908Z,2
2023-01-06T09:29:29.588Z,3
2023-01-06T09:30:23.240Z,3
2023-01-06T09:31:21.088Z,3
2023-01-06T09:32:26.045Z,3
2023-01-06T09:33:24.543Z,3
2023-01-06T09:34:22.933Z,3
2023-01-06T09:35:29.478Z,3
2023-01-06T09:36:22.519Z,4
2023-01-06T09:37:26.130Z,4
2023-01-06T09:38:20.931Z,4
2023-01-06T09:39:29.120Z,4
2023-01-06T09:40:26.943Z,4
2023-01-06T09:41:23.949Z,4
2023-01-06T09:42:33.211Z,4
2023-01-06T09:43:26.100Z,4
2023-01-06T09:44:24.944Z,4
2023-01-06T09:45:22.489Z,4
2023-01-06T09:46:32.357Z,4
2023-01-06T09:47:26.797Z,5
2023-01-06T09:48:24.828Z,5
2023-01-06T09:49:34.828Z,5
2023-01-06T09:50:23.538Z,5
2023-01-06T09:51:24.818Z,5
2023-01-06T09:52:21.023Z,5
2023-01-06T09:53:21.659Z,5
2023-01-06T09:54:22.037Z,5
2023-01-06T09:55:22.764Z,5
2023-01-06T09:56:29.641Z,5
2023-01-06T09:57:30.333Z,5
2023-01-06T09:58:28.067Z,5
2023-01-06T09:59:21.462Z,5
2023-01-06T10:00:24.208Z,5
2023-01-06T10:01:20.615Z,5
2023-01-06T10:02:23.926Z,5
2023-01-06T10:03:33.054Z,5
2023-01-06T10:04:29.110Z,5
2023-01-06T10:05:20.105Z,5
2023-01-06T10:06:21.905Z,5
2023-01-06T10:07:26.451Z,5
2023-01-06T10:08:21.936Z,5
2023-01-06T10:09:23.838Z,5
2023-01-06T10:10:34.321Z,4
2023-01-06T10:11:29.763Z,4
2023-01-06T10:12:25.281Z,4
2023-01-06T10:13:22.373Z,4
2023-01-06T10:14:21.564Z,4
2023-01-06T10:15:28.463Z,4
2023-01-06T10:16:23.284Z,4
2023-01-06T10:17:33.584Z,4
2023-01-06T10:18:23.332Z,4
2023-01-06T10:19:26.163Z,4
2023-01-06T10:20:21.174Z,4
2023-01-06T10:21:25.114Z,4
2023-01-06T10:22:27.627Z,4
2023-01-06T10:23:21.090Z,4
2023-01-06T10:24:27.636Z,4
2023-01-06T10:25:30.418Z,4
2023-01-06T10:26:25.071Z,4
2023-01-06T10:27:21.125Z,4
2023-01-06T10:28:31.976Z,4
2023-01-06T10:29:22.431Z,4
2023-01-06T10:30:27.953Z,4
2023-01-06T10:31:20.288Z,4
2023-01-06T10:32:29.873Z,4
2023-01-06T10:33:30.328Z,4
2023-01-06T10:34:22.974Z,4
2023-01-06T10:35:26.121Z,4
2023-01-06T10:36:29.228Z,4
2023-01-06T10:37:23.284Z,4
2023-01-06T10:38:25.929Z,4
2023-01-06T10:39:28.875Z,4
2023-01-06T10:40:27.051Z,4
2023-01-06T10:41:22.740Z,4
2023-01-06T10:42:31.522Z,4
2023-01-06T10:43:28.759Z,4
2023-01-06T10:44:24.013Z,4
2023-01-06T10:45:31.349Z,4
2023-01-06T10:46:22.108Z,4
2023-01-06T10:47:24.924Z,4
2023-01-06T10:48:20.917Z,4
2023-01-06T10:49:31.856Z,4
2023-01-06T10:50:28.784Z,4
2023-01-06T10:51:22.982Z,4
2023-01-06T10:52:26.787Z,4
2023-01-06T10:53:26.871Z,4
2023-01-06T10:54:24.988Z,4
2023-01-06T10:55:20.873Z,4
2023-01-06T10:56:33.401Z,4
2023-01-06T10:57:27.259Z,4
2023-01-06T10:58:25.224Z,5
2023-01-06T10:59:24.337Z,5
2023-01-06T11:00:29.335Z,5
2023-01-06T11:01:26.709Z,6
2023-01-06T11:02:20.963Z,6
2023-01-06T11:03:39.368Z,6
2023-01-06T11:04:27.252Z,6
2023-01-06T11:05:23.347Z,6
2023-01-06T11:06:29.356Z,6
2023-01-06T11:07:21.364Z,6
2023-01-06T11:08:27.854Z,6
2023-01-06T11:09:22.329Z,6
2023-01-06T11:10:21.103Z,7
2023-01-06T11:11:28.816Z,7
2023-01-06T11:12:26.018Z,7
2023-01-06T11:13:28.859Z,7
2023-01-06T11:14:21.361Z,7
2023-01-06T11:15:25.215Z,7
2023-01-06T11:16:21.437Z,6
2023-01-06T11:17:26.220Z,6
2023-01-06T11:18:27.753Z,6
2023-01-06T11:19:25.210Z,6
2023-01-06T11:20:25.069Z,6
2023-01-06T11:21:38.439Z,6
2023-01-06T11:22:25.125Z,6
2023-01-06T11:23:21.162Z,6
2023-01-06T11:24:22.594Z,6
2023-01-06T11:25:27.694Z,6
2023-01-06T11:26:25.061Z,6
2023-01-06T11:27:36.277Z,6
2023-01-06T11:28:22.155Z,6
2023-01-06T11:29:28.066Z,5
2023-01-06T11:30:21.264Z,5
2023-01-06T11:31:22.829Z,5
2023-01-06T11:32:21.770Z,5
2023-01-06T11:33:23.612Z,5
2023-01-06T11:34:32.848Z,4
2023-01-06T11:35:25.248Z,4
2023-01-06T11:36:25.027Z,4
2023-01-06T11:37:25.590Z,4
2023-01-06T11:38:34.233Z,4
2023-01-06T11:39:20.140Z,4
2023-01-06T11:40:26.889Z,4
2023-01-06T11:41:33.494Z,4
2023-01-06T11:42:28.946Z,4
2023-01-06T11:43:25.135Z,4
2023-01-06T11:44:21.471Z,4
2023-01-06T11:45:21.957Z,4
2023-01-06T11:46:23.236Z,4
2023-01-06T11:47:22.980Z,4
2023-01-06T11:48:26.234Z,4
2023-01-06T11:49:30.915Z,4
2023-01-06T11:50:24.993Z,4
2023-01-06T11:51:23.508Z,4
2023-01-06T11:52:25.807Z,5
2023-01-06T11:53:26.799Z,5
2023-01-06T11:54:25.083Z,5
2023-01-06T11:55:34.660Z,5
2023-01-06T11:56:29.380Z,5
2023-01-06T11:57:23.074Z,5
2023-01-06T11:58:21.671Z,5
2023-01-06T11:59:22.037Z,5
2023-01-06T12:00:21.043Z,5
2023-01-06T12:01:22.977Z,5
2023-01-06T12:02:24.165Z,5
2023-01-06T12:03:31.422Z,5
2023-01-06T12:04:25.397Z,5
2023-01-06T12:05:22.676Z,5
2023-01-06T12:06:33.670Z,5
2023-01-06T12:07:27.285Z,4
2023-01-06T12:08:22.911Z,4
2023-01-06T12:09:27.026Z,4
2023-01-06T12:10:21.596Z,4
2023-01-06T12:11:26.828Z,3
2023-01-06T12:12:20.927Z,3
2023-01-06T12:13:32.247Z,3
2023-01-06T12:14:30.533Z,3
2023-01-06T12:15:23.246Z,3
2023-01-06T12:16:25.196Z,4
2023-01-06T12:17:24.157Z,4
2023-01-06T12:18:25.277Z,4
2023-01-06T12:19:21.289Z,4
2023-01-06T12:20:32.593Z,4
2023-01-06T12:21:27.191Z,4
2023-01-06T12:22:29.456Z,4
2023-01-06T12:23:35.046Z,4
2023-01-06T12:24:29.687Z,4
2023-01-06T12:25:23.366Z,4
2023-01-06T12:26:21.363Z,3
2023-01-06T12:27:20.019Z,3
2023-01-06T12:28:28.331Z,3
2023-01-06T12:29:23.388Z,3
2023-01-06T12:30:24.574Z,3
2023-01-06T12:31:29.027Z,3
2023-01-06T12:32:25.628Z,3
2023-01-06T12:33:26.874Z,3
2023-01-06T12:34:32.325Z,3
2023-01-06T12:35:27.015Z,3
2023-01-06T12:36:23.349Z,3
2023-01-06T12:37:27.189Z,3
2023-01-06T12:38:21.633Z,3
2023-01-06T12:39:26.191Z,3
2023-01-06T12:40:22.832Z,3
2023-01-06T12:41:31.506Z,3
2023-01-06T12:42:28.791Z,3
2023-01-06T12:43:23.226Z,3
2023-01-06T12:44:22.459Z,3
2023-01-06T12:45:26.082Z,3
2023-01-06T12:46:25.800Z,3
2023-01-06T12:47:22.121Z,3
2023-01-06T12:48:21.953Z,3
2023-01-06T12:49:29.059Z,3
2023-01-06T12:50:23.237Z,3
2023-01-06T12:51:24.197Z,3
2023-01-06T12:52:32.411Z,3
2023-01-06T12:53:21.513Z,3
2023-01-06T12:54:21.108Z,3
2023-01-06T12:55:24.557Z,3
2023-01-06T12:56:27.282Z,3
2023-01-06T12:57:23.680Z,3
2023-01-06T12:58:26.966Z,3
2023-01-06T12:59:33.755Z,3
2023-01-06T13:00:26.717Z,3
2023-01-06T13:01:21.187Z,3
2023-01-06T13:02:23.897Z,3
2023-01-06T13:03:21.655Z,3
2023-01-06T13:04:23.204Z,3
2023-01-06T13:05:31.724Z,3
2023-01-06T13:06:29.387Z,3
2023-01-06T13:07:25.432Z,3
2023-01-06T13:08:23.663Z,3
2023-01-06T13:09:24.943Z,3
2023-01-06T13:10:28.050Z,3
2023-01-06T13:11:24.044Z,3
2023-01-06T13:12:21.132Z,3
2023-01-06T13:13:21.723Z,3
2023-01-06T13:14:25.287Z,3
2023-01-06T13:15:20.934Z,3
2023-01-06T13:16:28.226Z,3
2023-01-06T13:17:27.950Z,3
2023-01-06T13:18:26.151Z,3
2023-01-06T13:19:33.163Z,3
2023-01-06T13:20:24.340Z,3
2023-01-06T13:21:25.392Z,3
2023-01-06T13:22:23.361Z,3
2023-01-06T13:23:24.852Z,3
2023-01-06T13:24:27.418Z,3
2023-01-06T13:25:23.441Z,3
2023-01-06T13:26:20.498Z,3
2023-01-06T13:27:26.613Z,3
2023-01-06T13:28:26.494Z,3
2023-01-06T13:29:23.656Z,3
2023-01-06T13:30:27.411Z,3
2023-01-06T13:31:20.908Z,3
2023-01-06T13:32:23.286Z,2
2023-01-06T13:33:26.698Z,2
2023-01-06T13:34:45.168Z,2
2023-01-06T13:35:27.929Z,2
2023-01-06T13:36:21.328Z,2
2023-01-06T13:37:31.027Z,2
2023-01-06T13:38:25.529Z,2
2023-01-06T13:39:23.355Z,2
2023-01-06T13:40:19.906Z,2
2023-01-06T13:41:23.982Z,2
2023-01-06T13:42:25.769Z,2
2023-01-06T13:43:22.984Z,2
2023-01-06T13:44:34.014Z,2
2023-01-06T13:45:28.198Z,2
2023-01-06T13:46:25.293Z,2
2023-01-06T13:47:34.852Z,2
2023-01-06T13:48:26.348Z,2
2023-01-06T13:49:23.961Z,2
2023-01-06T13:50:21.834Z,2
2023-01-06T13:51:31.022Z,2
2023-01-06T13:52:27.021Z,2
2023-01-06T13:53:25.277Z,2
2023-01-06T13:54:33.273Z,2
2023-01-06T13:55:30.459Z,2
2023-01-06T13:56:23.573Z,2
2023-01-06T13:57:22.162Z,2
2023-01-06T13:58:35.145Z,2
2023-01-06T13:59:28.780Z,2
2023-01-06T14:00:20.468Z,2
2023-01-06T14:01:23.837Z,2
2023-01-06T14:02:31.027Z,2
2023-01-06T14:03:28.912Z,2
2023-01-06T14:04:21.212Z,2
2023-01-06T14:05:32.733Z,2
2023-01-06T14:06:27.497Z,2
2023-01-06T14:07:34.975Z,2
2023-01-06T14:08:25.849Z,2
2023-01-06T14:09:32.027Z,2
2023-01-06T14:10:24.956Z,2
2023-01-06T14:11:21.180Z,2
2023-01-06T14:12:33.221Z,2
2023-01-06T14:13:27.446Z,2
2023-01-06T14:14:27.742Z,2
2023-01-06T14:15:31.819Z,2
2023-01-06T14:16:23.015Z,2
2023-01-06T14:17:25.357Z,2
2023-01-06T14:18:31.142Z,2
2023-01-06T14:19:22.791Z,2
2023-01-06T14:20:30.233Z,2
2023-01-06T14:21:23.418Z,2
2023-01-06T14:22:34.797Z,2
2023-01-06T14:23:27.858Z,2
2023-01-06T14:24:20.731Z,2
2023-01-06T14:25:24.072Z,2
2023-01-06T14:26:29.060Z,2
2023-01-06T14:27:19.966Z,2
2023-01-06T14:28:23.508Z,2
2023-01-06T14:29:34.361Z,2
2023-01-06T14:30:32.088Z,2
2023-01-06T14:31:27.369Z,2
2023-01-06T14:32:21.423Z,2
2023-01-06T14:33:31.072Z,1
2023-01-06T14:34:25.379Z,1
2023-01-06T14:35:24.011Z,1
2023-01-06T14:36:22.076Z,1
2023-01-06T14:37:30.713Z,1
2023-01-06T14:38:30.237Z,1
2023-01-06T14:39:21.025Z,1
2023-01-06T14:40:31.104Z,1
2023-01-06T14:41:30.274Z,1
2023-01-06T14:42:23.380Z,1
2023-01-06T14:43:25.165Z,1
2023-01-06T14:44:29.634Z,1
2023-01-06T14:45:25.871Z,1
2023-01-06T14:46:21.375Z,1
2023-01-06T14:47:21.068Z,1
2023-01-06T14:48:28.811Z,1
2023-01-06T14:49:25.087Z,1
2023-01-06T14:50:41.981Z,1
2023-01-06T14:51:29.897Z,1
2023-01-06T14:52:25.193Z,1
2023-01-06T14:53:23.612Z,1
2023-01-06T14:54:24.669Z,1
2023-01-06T14:55:27.047Z,1
2023-01-06T14:56:25.068Z,1
2023-01-06T14:57:22.726Z,1
2023-01-06T14:58:29.055Z,1
2023-01-06T14:59:27.276Z,1
2023-01-06T15:00:21.167Z,1
2023-01-06T15:01:26.038Z,1
2023-01-06T15:02:27.898Z,1